createdAt,value
2022-08-18T00:09:38.256Z,24.90
2022-08-18T00:20:00.868Z,20.50
2022-08-18T00:30:07.815Z,20.20
2022-08-18T00:40:37.836Z,23.70
2022-08-18T00:51:09.687Z,23.40
2022-08-18T01:01:59.608Z,19.90
2022-08-18T01:13:20.692Z,21.00
2022-08-18T01:23:32.104Z,23.20
2022-08-18T01:33:59.321Z,24.10
2022-08-18T01:44:04.969Z,23.50
2022-08-18T01:54:56.396Z,22.00
2022-08-18T02:05:41.531Z,22.40
2022-08-18T02:15:47.126Z,21.00
2022-08-18T02:26:18.095Z,21.90
2022-08-18T02:36:44.656Z,22.20
2022-08-18T02:47:00.610Z,20.50
2022-08-18T02:57:54.372Z,21.60
2022-08-18T03:08:03.528Z,22.10
2022-08-18T03:18:35.307Z,25.20
2022-08-18T03:28:49.351Z,24.00
2022-08-18T03:38:54.839Z,22.30
2022-08-18T03:59:30.485Z,21.10
2022-08-18T04:09:47.371Z,27.00
2022-08-18T04:21:07.593Z,23.40
2022-08-18T04:31:38.331Z,25.00
2022-08-18T04:41:51.529Z,23.30
2022-08-18T04:53:04.550Z,27.80
2022-08-18T05:03:17.033Z,24.10
2022-08-18T05:13:20.139Z,26.00
2022-08-18T05:23:46.107Z,30.60
2022-08-18T05:33:51.869Z,28.20
2022-08-18T05:43:59.512Z,27.70
2022-08-18T06:05:26.371Z,28.90
2022-08-18T06:16:37.580Z,29.10
2022-08-18T06:34:12.490Z,25.70
2022-08-18T06:39:27.957Z,29.90
2022-08-18T07:00:50.842Z,25.80
2022-08-18T07:11:17.266Z,19.60
2022-08-18T07:21:49.201Z,21.40
2022-08-18T07:31:57.181Z,16.70
2022-08-18T07:53:36.891Z,14.80
2022-08-18T08:04:05.480Z,13.80
2022-08-18T08:14:50.716Z,14.00
2022-08-18T08:25:42.292Z,13.90
2022-08-18T08:35:48.930Z,14.80
2022-08-18T08:58:01.062Z,15.90
2022-08-18T09:08:28.158Z,12.70
2022-08-18T09:19:05.287Z,15.50
2022-08-18T09:30:12.128Z,14.50
2022-08-18T09:41:10.064Z,12.50
2022-08-18T10:02:32.516Z,9.50
2022-08-18T10:14:18.254Z,10.50
2022-08-18T10:25:09.171Z,10.20
2022-08-18T10:47:12.126Z,8.90
2022-08-18T11:09:28.891Z,9.00
2022-08-18T11:20:01.248Z,10.10
2022-08-18T11:30:31.066Z,7.20
2022-08-18T11:41:19.200Z,10.60
2022-08-18T11:52:15.312Z,10.10
2022-08-18T12:03:15.122Z,11.40
2022-08-18T12:13:47.198Z,11.20
2022-08-18T12:23:55.423Z,9.50
2022-08-18T12:34:05.240Z,9.20
2022-08-18T12:44:19.190Z,11.70
2022-08-18T13:05:13.710Z,9.50
2022-08-18T13:15:16.226Z,10.30
2022-08-18T13:27:22.985Z,9.10
2022-08-18T13:36:22.502Z,9.20
2022-08-18T13:46:57.406Z,14.00
2022-08-18T14:08:39.266Z,8.80
2022-08-18T14:42:02.920Z,10.90
2022-08-18T14:52:31.914Z,9.40
2022-08-18T15:02:45.383Z,10.30
2022-08-18T15:12:48.741Z,12.90
2022-08-18T15:23:13.263Z,12.40
2022-08-18T15:33:42.816Z,12.60
2022-08-18T16:17:18.183Z,11.60
2022-08-18T16:39:44.087Z,9.90
2022-08-18T17:53:49.094Z,12.00
2022-08-18T18:57:40.701Z,15.90
2022-08-18T19:50:20.991Z,13.60
2022-08-18T20:12:19.441Z,20.90
2022-08-18T20:23:11.586Z,16.60
2022-08-18T20:33:26.063Z,16.60
2022-08-18T20:44:10.522Z,15.80
2022-08-18T20:54:29.888Z,17.20
2022-08-18T21:36:11.079Z,17.00
2022-08-18T21:56:41.856Z,16.40
2022-08-18T22:29:45.689Z,15.10
2022-08-18T22:50:20.713Z,14.80
2022-08-18T23:21:05.267Z,16.00
2022-08-18T23:31:07.482Z,17.20
2022-08-18T23:52:15.172Z,17.70
